createdAt,value
2018-09-16T00:02:45.680Z,10.17
2018-09-16T00:05:49.918Z,10.17
2018-09-16T00:08:54.108Z,10.16
2018-09-16T00:11:58.338Z,10.14
2018-09-16T00:15:02.541Z,10.14
2018-09-16T00:18:06.745Z,10.13
2018-09-16T00:21:10.965Z,10.10
2018-09-16T00:24:15.172Z,10.08
2018-09-16T00:27:19.397Z,10.05
2018-09-16T00:30:23.576Z,10.01
2018-09-16T00:33:27.788Z,10.00
2018-09-16T00:36:31.984Z,9.97
2018-09-16T00:39:36.220Z,9.94
2018-09-16T00:42:40.404Z,9.92
2018-09-16T00:45:44.604Z,9.91
2018-09-16T00:48:48.820Z,9.93
2018-09-16T00:51:53.049Z,9.96
2018-09-16T00:54:57.228Z,9.96
2018-09-16T00:58:01.453Z,9.96
2018-09-16T01:01:05.660Z,9.95
2018-09-16T01:04:10.692Z,9.96
2018-09-16T01:07:14.872Z,9.96
2018-09-16T01:10:19.061Z,9.97
2018-09-16T01:13:23.305Z,9.95
2018-09-16T01:16:27.534Z,9.92
2018-09-16T01:19:31.726Z,9.90
2018-09-16T01:22:36.044Z,9.88
2018-09-16T01:25:40.313Z,9.88
2018-09-16T01:28:44.501Z,9.88
2018-09-16T01:31:48.705Z,9.85
2018-09-16T01:34:52.924Z,9.84
2018-09-16T01:38:02.322Z,9.85
2018-09-16T01:41:06.651Z,9.86
2018-09-16T01:44:10.853Z,9.87
2018-09-16T01:47:15.081Z,9.84
2018-09-16T01:50:19.312Z,9.83
2018-09-16T01:53:23.516Z,9.82
2018-09-16T01:56:27.745Z,9.80
2018-09-16T01:59:31.973Z,9.77
2018-09-16T02:02:36.197Z,9.71
2018-09-16T02:05:45.612Z,9.68
2018-09-16T02:08:49.833Z,9.67
2018-09-16T02:11:54.041Z,9.68
2018-09-16T02:14:58.609Z,9.68
2018-09-16T02:18:02.812Z,9.67
2018-09-16T02:21:07.156Z,9.66
2018-09-16T02:24:11.343Z,9.64
2018-09-16T02:27:15.585Z,9.63
2018-09-16T02:30:19.780Z,9.60
2018-09-16T02:33:24.013Z,9.63
2018-09-16T02:36:28.217Z,9.62
2018-09-16T02:39:32.430Z,9.59
2018-09-16T02:42:36.648Z,9.58
2018-09-16T02:45:40.847Z,9.57
2018-09-16T02:48:45.064Z,9.56
2018-09-16T02:51:49.258Z,9.57
2018-09-16T02:54:53.478Z,9.56
2018-09-16T02:57:57.678Z,9.57
2018-09-16T03:01:01.892Z,9.56
2018-09-16T03:04:06.078Z,9.60
2018-09-16T03:07:10.324Z,9.64
2018-09-16T03:10:14.525Z,9.62
2018-09-16T03:13:18.740Z,9.64
2018-09-16T03:16:22.975Z,9.64
2018-09-16T03:19:27.213Z,9.63
2018-09-16T03:22:31.404Z,9.60
2018-09-16T03:25:35.614Z,9.60
2018-09-16T03:28:39.825Z,9.59
2018-09-16T03:31:44.029Z,9.58
2018-09-16T03:34:48.224Z,9.58
2018-09-16T03:37:52.440Z,9.56
2018-09-16T03:40:56.632Z,9.57
2018-09-16T03:44:00.841Z,9.58
2018-09-16T03:47:05.045Z,9.62
2018-09-16T03:50:09.249Z,9.63
2018-09-16T03:53:13.460Z,9.61
2018-09-16T03:56:17.689Z,9.63
2018-09-16T03:59:21.893Z,9.65
2018-09-16T04:02:26.092Z,9.63
2018-09-16T04:05:30.312Z,9.64
2018-09-16T04:08:34.545Z,9.64
2018-09-16T04:11:38.905Z,9.65
2018-09-16T04:14:43.212Z,9.66
2018-09-16T04:17:47.385Z,9.68
2018-09-16T04:20:51.779Z,9.68
2018-09-16T04:23:55.988Z,9.72
2018-09-16T04:27:00.200Z,9.75
2018-09-16T04:30:04.475Z,9.78
2018-09-16T04:33:08.697Z,9.81
2018-09-16T04:36:12.976Z,9.83
2018-09-16T04:39:17.217Z,9.84
2018-09-16T04:42:21.409Z,9.84
2018-09-16T04:45:25.617Z,9.84
2018-09-16T04:48:29.817Z,9.88
2018-09-16T04:51:34.008Z,9.92
2018-09-16T04:54:38.219Z,9.96
2018-09-16T04:57:42.414Z,9.98
2018-09-16T05:00:47.509Z,10.03
2018-09-16T05:03:51.725Z,10.07
2018-09-16T05:06:55.944Z,10.11
2018-09-16T05:10:00.142Z,10.17
2018-09-16T05:13:04.364Z,10.26
2018-09-16T05:16:08.569Z,10.37
2018-09-16T05:19:12.773Z,10.46
2018-09-16T05:22:16.986Z,10.56
2018-09-16T05:25:21.212Z,10.64
2018-09-16T05:28:25.416Z,10.73
2018-09-16T05:31:29.696Z,10.81
2018-09-16T05:34:33.861Z,10.86
2018-09-16T05:37:38.069Z,10.93
2018-09-16T05:40:42.302Z,10.98
2018-09-16T05:43:46.486Z,11.02
2018-09-16T05:46:50.708Z,11.06
2018-09-16T05:49:54.949Z,11.15
2018-09-16T05:52:59.337Z,11.18
2018-09-16T05:56:03.413Z,11.23
2018-09-16T05:59:07.642Z,11.28
2018-09-16T06:02:11.857Z,11.38
2018-09-16T06:05:16.097Z,11.45
2018-09-16T06:08:20.296Z,11.50
2018-09-16T06:11:24.514Z,11.53
2018-09-16T06:14:28.719Z,11.57
2018-09-16T06:17:32.941Z,11.60
2018-09-16T06:20:37.153Z,11.66
2018-09-16T06:23:41.397Z,11.74
2018-09-16T06:26:45.604Z,11.80
2018-09-16T06:29:49.809Z,11.87
2018-09-16T06:32:54.006Z,11.90
2018-09-16T06:35:58.209Z,11.96
2018-09-16T06:39:02.424Z,11.97
2018-09-16T06:42:06.665Z,12.01
2018-09-16T06:45:10.868Z,12.03
2018-09-16T06:48:15.105Z,12.07
2018-09-16T06:51:19.840Z,12.09
2018-09-16T06:54:24.061Z,12.19
2018-09-16T06:57:28.253Z,12.25
2018-09-16T07:00:32.497Z,12.29
2018-09-16T07:03:36.697Z,12.34
2018-09-16T07:06:40.940Z,12.43
2018-09-16T07:09:45.141Z,12.52
2018-09-16T07:12:49.357Z,12.58
2018-09-16T07:15:53.577Z,12.67
2018-09-16T07:18:57.887Z,12.77
2018-09-16T07:22:02.061Z,12.83
2018-09-16T07:25:07.042Z,12.83
2018-09-16T07:28:11.269Z,12.88
2018-09-16T07:31:15.470Z,13.00
2018-09-16T07:34:19.721Z,13.04
2018-09-16T07:37:23.920Z,13.09
2018-09-16T07:40:28.141Z,13.20
2018-09-16T07:43:32.328Z,13.31
2018-09-16T07:46:36.570Z,13.39
2018-09-16T07:49:40.865Z,13.48
2018-09-16T07:52:45.118Z,13.54
2018-09-16T07:55:49.318Z,13.67
2018-09-16T07:58:53.644Z,13.81
2018-09-16T08:01:57.848Z,13.92
2018-09-16T08:05:02.068Z,14.02
2018-09-16T08:08:06.315Z,14.15
2018-09-16T08:11:10.537Z,14.25
2018-09-16T08:14:14.748Z,14.33
2018-09-16T08:17:18.972Z,14.42
2018-09-16T08:20:23.197Z,14.49
2018-09-16T08:23:27.471Z,14.64
2018-09-16T08:26:31.718Z,14.82
2018-09-16T08:29:35.909Z,15.05
2018-09-16T08:32:40.137Z,15.28
2018-09-16T08:35:44.437Z,15.52
2018-09-16T08:38:48.662Z,15.67
2018-09-16T08:41:52.888Z,15.88
2018-09-16T08:44:57.105Z,16.05
2018-09-16T08:48:01.316Z,16.21
2018-09-16T08:51:06.177Z,16.31
2018-09-16T08:54:10.625Z,16.42
2018-09-16T08:57:14.832Z,16.46
2018-09-16T09:00:19.025Z,16.62
2018-09-16T09:03:23.260Z,16.75
2018-09-16T09:06:27.488Z,16.78
2018-09-16T09:09:31.695Z,16.82
2018-09-16T09:12:35.909Z,16.88
2018-09-16T09:15:40.163Z,16.87
2018-09-16T09:18:44.348Z,16.97
2018-09-16T09:21:48.564Z,17.07
2018-09-16T09:24:52.756Z,17.18
2018-09-16T09:27:56.956Z,17.24
2018-09-16T09:31:01.157Z,17.35
2018-09-16T09:34:06.229Z,17.49
2018-09-16T09:37:10.408Z,17.63
2018-09-16T09:40:14.608Z,17.69
2018-09-16T09:43:18.816Z,17.74
2018-09-16T09:46:23.016Z,17.75
2018-09-16T09:49:27.215Z,17.84
2018-09-16T09:52:32.634Z,17.87
2018-09-16T09:55:36.825Z,17.91
2018-09-16T09:58:41.761Z,17.92
2018-09-16T10:01:45.969Z,17.97
2018-09-16T10:04:50.200Z,18.00
2018-09-16T10:07:54.413Z,18.04
2018-09-16T10:10:58.617Z,18.11
2018-09-16T10:14:02.804Z,18.16
2018-09-16T10:17:07.157Z,18.24
2018-09-16T10:20:11.361Z,18.28
2018-09-16T10:23:15.582Z,18.34
2018-09-16T10:26:20.788Z,18.34
2018-09-16T10:29:25.029Z,18.32
2018-09-16T10:32:29.225Z,18.30
2018-09-16T10:35:33.444Z,18.26
2018-09-16T10:38:37.715Z,18.30
2018-09-16T10:41:41.892Z,18.36
2018-09-16T10:44:46.084Z,18.44
2018-09-16T10:47:50.335Z,18.50
2018-09-16T10:50:54.560Z,18.54
2018-09-16T10:53:58.768Z,18.56
2018-09-16T10:57:03.004Z,18.67
2018-09-16T11:00:07.221Z,18.80
2018-09-16T11:03:11.457Z,18.90
2018-09-16T11:06:15.648Z,18.89
2018-09-16T11:09:19.860Z,18.76
2018-09-16T11:12:24.068Z,18.59
2018-09-16T11:15:28.309Z,18.49
2018-09-16T11:18:32.540Z,18.47
2018-09-16T11:21:36.734Z,18.46
2018-09-16T11:24:41.002Z,18.55
2018-09-16T11:27:45.229Z,18.66
2018-09-16T11:30:49.465Z,18.68
2018-09-16T11:33:53.685Z,18.73
2018-09-16T11:36:57.957Z,18.76
2018-09-16T11:40:02.221Z,18.86
2018-09-16T11:43:06.482Z,18.88
2018-09-16T11:46:10.707Z,18.93
2018-09-16T11:49:14.941Z,18.97
2018-09-16T11:52:19.321Z,18.98
2018-09-16T11:55:23.588Z,19.00
2018-09-16T11:58:27.776Z,19.02
2018-09-16T12:01:31.994Z,19.07
2018-09-16T12:04:36.180Z,19.11
2018-09-16T12:07:40.401Z,19.25
2018-09-16T12:10:44.617Z,19.32
2018-09-16T12:13:48.852Z,19.44
2018-09-16T12:16:53.065Z,19.46
2018-09-16T12:19:57.292Z,19.48
2018-09-16T12:23:01.484Z,19.57
2018-09-16T12:26:05.692Z,19.65
2018-09-16T12:29:09.897Z,19.75
2018-09-16T12:32:15.108Z,19.78
2018-09-16T12:35:19.325Z,19.82
2018-09-16T12:38:23.596Z,19.90
2018-09-16T12:41:27.792Z,19.88
2018-09-16T12:44:32.018Z,19.83
2018-09-16T12:47:36.197Z,19.86
2018-09-16T12:50:40.412Z,19.97
2018-09-16T12:53:44.620Z,19.95
2018-09-16T12:56:48.876Z,20.07
2018-09-16T12:59:53.389Z,20.06
2018-09-16T13:02:57.584Z,20.02
2018-09-16T13:06:01.834Z,20.01
2018-09-16T13:09:10.123Z,19.84
2018-09-16T13:12:14.337Z,19.84
2018-09-16T13:15:18.535Z,19.94
2018-09-16T13:18:22.749Z,19.93
2018-09-16T13:21:26.937Z,19.88
2018-09-16T13:24:31.153Z,19.90
2018-09-16T13:27:35.372Z,19.85
2018-09-16T13:30:39.597Z,19.96
2018-09-16T13:33:43.795Z,20.06
2018-09-16T13:36:48.820Z,20.02
2018-09-16T13:39:53.037Z,20.13
2018-09-16T13:42:57.232Z,20.12
2018-09-16T13:46:01.423Z,20.00
2018-09-16T13:49:06.172Z,19.87
2018-09-16T13:52:10.369Z,19.81
2018-09-16T13:55:14.556Z,19.90
2018-09-16T13:58:18.745Z,19.95
2018-09-16T14:01:22.928Z,20.06
2018-09-16T14:04:27.117Z,19.96
2018-09-16T14:07:31.378Z,19.88
2018-09-16T14:10:35.561Z,19.83
2018-09-16T14:13:39.760Z,19.74
2018-09-16T14:16:43.944Z,19.69
2018-09-16T14:19:48.161Z,19.71
2018-09-16T14:22:52.348Z,19.67
2018-09-16T14:25:56.556Z,19.65
2018-09-16T14:29:00.770Z,19.67
2018-09-16T14:32:04.988Z,19.60
2018-09-16T14:35:09.188Z,19.57
2018-09-16T14:38:13.389Z,19.47
2018-09-16T14:41:17.577Z,19.37
2018-09-16T14:44:21.817Z,19.28
2018-09-16T14:47:26.005Z,19.21
2018-09-16T14:50:30.191Z,19.15
2018-09-16T14:53:34.378Z,19.10
2018-09-16T14:56:38.643Z,19.06
2018-09-16T14:59:43.285Z,19.01
2018-09-16T15:02:47.535Z,18.98
2018-09-16T15:05:51.748Z,18.92
2018-09-16T15:08:56.012Z,18.92
2018-09-16T15:12:00.273Z,18.91
2018-09-16T15:15:04.720Z,18.91
2018-09-16T15:18:09.241Z,18.90
2018-09-16T15:21:13.641Z,18.89
2018-09-16T15:24:17.864Z,18.89
2018-09-16T15:27:22.098Z,18.90
2018-09-16T15:30:26.319Z,18.89
2018-09-16T15:33:30.542Z,18.89
2018-09-16T15:36:34.809Z,18.88
2018-09-16T15:39:38.987Z,18.89
2018-09-16T15:42:43.236Z,18.94
2018-09-16T15:45:47.380Z,18.95
2018-09-16T15:48:51.596Z,18.96
2018-09-16T15:51:55.790Z,18.92
2018-09-16T15:55:00.052Z,18.88
2018-09-16T15:58:04.208Z,18.88
2018-09-16T16:01:08.417Z,18.89
2018-09-16T16:04:12.638Z,18.89
2018-09-16T16:07:16.852Z,18.88
2018-09-16T16:10:21.084Z,18.89
2018-09-16T16:13:25.304Z,18.84
2018-09-16T16:16:29.608Z,18.81
2018-09-16T16:19:33.821Z,18.84
2018-09-16T16:22:38.074Z,18.79
2018-09-16T16:25:42.266Z,18.77
2018-09-16T16:28:46.488Z,18.75
2018-09-16T16:31:50.665Z,18.75
2018-09-16T16:34:54.926Z,18.70
2018-09-16T16:37:59.126Z,18.65
2018-09-16T16:41:03.342Z,18.57
2018-09-16T16:44:07.545Z,18.54
2018-09-16T16:47:11.775Z,18.49
2018-09-16T16:50:15.978Z,18.45
2018-09-16T16:53:20.195Z,18.40
2018-09-16T16:56:24.404Z,18.31
2018-09-16T16:59:28.613Z,18.23
2018-09-16T17:02:32.821Z,18.16
2018-09-16T17:05:37.038Z,18.05
2018-09-16T17:08:41.741Z,17.97
2018-09-16T17:11:45.948Z,17.88
2018-09-16T17:14:50.154Z,17.81
2018-09-16T17:17:54.377Z,17.74
2018-09-16T17:20:58.565Z,17.66
2018-09-16T17:24:02.782Z,17.58
2018-09-16T17:27:07.068Z,17.54
2018-09-16T17:30:11.299Z,17.48
2018-09-16T17:33:15.500Z,17.43
2018-09-16T17:36:19.741Z,17.37
2018-09-16T17:39:23.917Z,17.31
2018-09-16T17:42:28.121Z,17.27
2018-09-16T17:45:32.316Z,17.26
2018-09-16T17:48:36.530Z,17.23
2018-09-16T17:51:40.725Z,17.19
2018-09-16T17:54:45.325Z,17.18
2018-09-16T17:57:49.540Z,17.13
2018-09-16T18:00:53.765Z,17.07
2018-09-16T18:03:57.972Z,17.07
2018-09-16T18:07:02.223Z,17.07
2018-09-16T18:10:06.420Z,17.05
2018-09-16T18:13:11.426Z,17.05
2018-09-16T18:16:15.665Z,17.00
2018-09-16T18:19:19.889Z,17.02
2018-09-16T18:22:24.060Z,16.99
2018-09-16T18:25:28.245Z,16.94
2018-09-16T18:28:32.473Z,16.91
2018-09-16T18:31:36.665Z,16.88
2018-09-16T18:34:40.989Z,16.83
2018-09-16T18:37:45.168Z,16.80
2018-09-16T18:40:49.408Z,16.78
2018-09-16T18:43:53.753Z,16.75
2018-09-16T18:46:57.980Z,16.73
2018-09-16T18:50:02.156Z,16.72
2018-09-16T18:53:06.381Z,16.71
2018-09-16T18:56:10.577Z,16.70
2018-09-16T18:59:14.778Z,16.66
2018-09-16T19:02:18.974Z,16.65
2018-09-16T19:05:23.212Z,16.63
2018-09-16T19:08:31.529Z,16.61
2018-09-16T19:11:35.953Z,16.57
2018-09-16T19:14:40.195Z,16.54
2018-09-16T19:17:44.489Z,16.52
2018-09-16T19:20:48.739Z,16.49
2018-09-16T19:23:53.012Z,16.46
2018-09-16T19:26:57.267Z,16.45
2018-09-16T19:30:01.518Z,16.42
2018-09-16T19:33:05.743Z,16.43
2018-09-16T19:36:09.944Z,16.42
2018-09-16T19:39:14.178Z,16.44
2018-09-16T19:42:18.374Z,16.44
2018-09-16T19:45:22.592Z,16.47
2018-09-16T19:48:26.789Z,16.54
2018-09-16T19:51:30.998Z,16.50
2018-09-16T19:54:35.176Z,16.48
2018-09-16T19:57:39.361Z,16.47
2018-09-16T20:00:43.620Z,16.42
2018-09-16T20:03:47.837Z,16.44
2018-09-16T20:06:52.052Z,16.45
2018-09-16T20:09:56.263Z,16.43
2018-09-16T20:13:00.452Z,16.43
2018-09-16T20:16:04.653Z,16.41
2018-09-16T20:19:09.199Z,16.40
2018-09-16T20:22:13.392Z,16.40
2018-09-16T20:25:17.624Z,16.41
2018-09-16T20:28:21.820Z,16.40
2018-09-16T20:31:26.065Z,16.39
2018-09-16T20:34:30.290Z,16.35
2018-09-16T20:37:34.529Z,16.35
2018-09-16T20:40:38.725Z,16.28
2018-09-16T20:43:43.018Z,16.22
2018-09-16T20:46:47.235Z,16.15
2018-09-16T20:49:51.476Z,16.17
2018-09-16T20:52:55.676Z,16.11
2018-09-16T20:55:59.904Z,16.01
2018-09-16T20:59:04.116Z,15.95
2018-09-16T21:02:08.496Z,15.90
2018-09-16T21:05:12.709Z,15.84
2018-09-16T21:08:17.025Z,15.87
2018-09-16T21:11:21.600Z,15.82
2018-09-16T21:14:25.847Z,15.81
2018-09-16T21:17:30.037Z,15.75
2018-09-16T21:20:34.244Z,15.79
2018-09-16T21:23:38.457Z,15.80
2018-09-16T21:26:42.676Z,15.79
2018-09-16T21:29:46.876Z,15.82
2018-09-16T21:32:51.081Z,15.88
2018-09-16T21:35:55.288Z,15.88
2018-09-16T21:38:59.521Z,15.83
2018-09-16T21:42:03.738Z,15.81
2018-09-16T21:45:07.933Z,15.82
2018-09-16T21:48:12.117Z,15.80
2018-09-16T21:51:16.364Z,15.71
2018-09-16T21:54:20.569Z,15.68
2018-09-16T21:57:24.825Z,15.68
2018-09-16T22:00:28.976Z,15.63
2018-09-16T22:03:33.180Z,15.58
2018-09-16T22:06:37.377Z,15.58
2018-09-16T22:09:41.585Z,15.58
2018-09-16T22:12:45.785Z,15.55
2018-09-16T22:15:50.002Z,15.56
2018-09-16T22:18:54.219Z,15.54
2018-09-16T22:21:58.441Z,15.53
2018-09-16T22:25:02.623Z,15.50
2018-09-16T22:28:07.513Z,15.47
2018-09-16T22:31:11.755Z,15.48
2018-09-16T22:34:15.982Z,15.46
2018-09-16T22:37:20.193Z,15.44
2018-09-16T22:40:24.419Z,15.45
2018-09-16T22:43:28.632Z,15.46
2018-09-16T22:46:32.852Z,15.45
2018-09-16T22:49:37.071Z,15.42
2018-09-16T22:52:41.280Z,15.42
2018-09-16T22:55:45.491Z,15.51
2018-09-16T22:58:49.681Z,15.49
2018-09-16T23:01:53.892Z,15.50
2018-09-16T23:04:58.101Z,15.48
2018-09-16T23:08:02.296Z,15.53
2018-09-16T23:11:06.503Z,15.56
2018-09-16T23:14:10.745Z,15.56
2018-09-16T23:17:14.960Z,15.56
2018-09-16T23:20:19.152Z,15.53
2018-09-16T23:23:23.331Z,15.50
2018-09-16T23:26:27.541Z,15.48
2018-09-16T23:29:31.744Z,15.47
2018-09-16T23:32:35.956Z,15.42
2018-09-16T23:35:40.150Z,15.38
2018-09-16T23:38:44.695Z,15.31
2018-09-16T23:41:48.905Z,15.26
2018-09-16T23:44:53.118Z,15.21
2018-09-16T23:47:57.324Z,15.16
2018-09-16T23:51:01.549Z,15.15
2018-09-16T23:54:05.741Z,15.10
2018-09-16T23:57:09.961Z,15.05
